KCRW Airport Diagram

We have created a template for each of the higher traffic airports in the vZID airspace. They include KCMH, KCRW, KCVG, KDAY, KIND, KLEX and KSDF. You wil find usefull information including the airport diagram, weather, and specific airport procedures.

KCRW Weather

[Source: ADDS]
METAR
KCRW 180054Z 00000KT 6SM -RA BR FEW009 BKN020 OVC032 03/02 A3003 RMK AO2 SLP175 P0002 T00280022 =
KCRW 172333Z 1800/1824 00000KT 5SM -RA SCT008 OVC025 TEMPO 1800/1802 2SM -RASN BKN007 FM180200 00000KT 4SM -RA BR OVC007 FM180700 VRB03KT P6SM OVC005 FM181800 28004KT P6SM BKN010
TAF
KCRW 172333Z 1800/1824 00000KT 5SM -RA SCT008 OVC025 TEMPO 1800/1802 2SM -RASN BKN007 FM180200 00000KT 4SM -RA BR OVC007 FM180700 VRB03KT P6SM OVC005 FM181800 28004KT P6SM BKN010 =

KCRW Operations

Calm wind runway up to 10kts: Rw 23

 

JSN Epic template designed by JoomlaShine.com